sensor_id;sensor_type;location;lat;lon;timestamp;temperature;humidity
20366;DHT22;10341;49.894;8.822;2023-07-08T00:04:07;15.90;99.90
20366;DHT22;10341;49.894;8.822;2023-07-08T00:09:26;15.90;99.90
20366;DHT22;10341;49.894;8.822;2023-07-08T00:14:45;15.90;99.90
20366;DHT22;10341;49.894;8.822;2023-07-08T00:25:53;15.80;99.90
20366;DHT22;10341;49.894;8.822;2023-07-08T00:31:12;15.70;99.90
20366;DHT22;10341;49.894;8.822;2023-07-08T00:36:32;15.60;99.90
20366;DHT22;10341;49.894;8.822;2023-07-08T00:41:52;15.50;99.90
20366;DHT22;10341;49.894;8.822;2023-07-08T00:47:14;15.30;99.90
20366;DHT22;10341;49.894;8.822;2023-07-08T00:52:34;15.20;99.90
20366;DHT22;10341;49.894;8.822;2023-07-08T00:57:53;15.10;99.90
20366;DHT22;10341;49.894;8.822;2023-07-08T01:03:13;14.90;99.90
20366;DHT22;10341;49.894;8.822;2023-07-08T01:08:33;14.80;99.90
20366;DHT22;10341;49.894;8.822;2023-07-08T01:13:52;14.80;99.90
20366;DHT22;10341;49.894;8.822;2023-07-08T01:19:16;14.80;99.90
20366;DHT22;10341;49.894;8.822;2023-07-08T01:24:41;14.70;99.90
20366;DHT22;10341;49.894;8.822;2023-07-08T01:30:03;14.70;99.90
20366;DHT22;10341;49.894;8.822;2023-07-08T01:35:22;14.60;99.90
20366;DHT22;10341;49.894;8.822;2023-07-08T01:40:49;14.70;99.90
20366;DHT22;10341;49.894;8.822;2023-07-08T01:46:18;14.60;99.90
20366;DHT22;10341;49.894;8.822;2023-07-08T01:51:38;14.50;99.90
20366;DHT22;10341;49.894;8.822;2023-07-08T01:57:00;14.40;99.90
20366;DHT22;10341;49.894;8.822;2023-07-08T02:02:22;14.40;99.90
20366;DHT22;10341;49.894;8.822;2023-07-08T02:07:42;14.30;99.90
20366;DHT22;10341;49.894;8.822;2023-07-08T02:13:02;14.30;99.90
20366;DHT22;10341;49.894;8.822;2023-07-08T02:18:21;14.20;99.90
20366;DHT22;10341;49.894;8.822;2023-07-08T02:23:42;14.10;99.90
20366;DHT22;10341;49.894;8.822;2023-07-08T02:29:01;14.10;99.90
20366;DHT22;10341;49.894;8.822;2023-07-08T02:34:21;14.00;99.90
20366;DHT22;10341;49.894;8.822;2023-07-08T02:39:40;13.90;99.90
20366;DHT22;10341;49.894;8.822;2023-07-08T02:45:00;13.80;99.90
20366;DHT22;10341;49.894;8.822;2023-07-08T02:50:19;13.70;99.90
20366;DHT22;10341;49.894;8.822;2023-07-08T02:55:39;13.70;99.90
20366;DHT22;10341;49.894;8.822;2023-07-08T03:00:59;13.60;99.90
20366;DHT22;10341;49.894;8.822;2023-07-08T03:06:19;13.60;99.90
20366;DHT22;10341;49.894;8.822;2023-07-08T03:11:39;13.60;99.90
20366;DHT22;10341;49.894;8.822;2023-07-08T03:16:58;13.50;99.90
20366;DHT22;10341;49.894;8.822;2023-07-08T03:22:18;13.40;99.90
20366;DHT22;10341;49.894;8.822;2023-07-08T03:27:38;13.40;99.90
20366;DHT22;10341;49.894;8.822;2023-07-08T03:32:58;13.40;99.90
20366;DHT22;10341;49.894;8.822;2023-07-08T03:38:17;13.40;99.90
20366;DHT22;10341;49.894;8.822;2023-07-08T03:43:37;13.30;99.90
20366;DHT22;10341;49.894;8.822;2023-07-08T03:48:56;13.30;99.90
20366;DHT22;10341;49.894;8.822;2023-07-08T03:54:17;13.30;99.90
20366;DHT22;10341;49.894;8.822;2023-07-08T03:59:37;13.30;99.90
20366;DHT22;10341;49.894;8.822;2023-07-08T04:04:56;13.30;99.90
20366;DHT22;10341;49.894;8.822;2023-07-08T04:10:16;13.40;99.90
20366;DHT22;10341;49.894;8.822;2023-07-08T04:15:38;13.50;99.90
20366;DHT22;10341;49.894;8.822;2023-07-08T04:20:58;13.60;99.90
20366;DHT22;10341;49.894;8.822;2023-07-08T04:26:18;13.80;99.90
20366;DHT22;10341;49.894;8.822;2023-07-08T04:31:38;13.90;99.90
20366;DHT22;10341;49.894;8.822;2023-07-08T04:36:58;14.00;99.90
20366;DHT22;10341;49.894;8.822;2023-07-08T04:42:17;14.10;99.90
20366;DHT22;10341;49.894;8.822;2023-07-08T04:47:36;14.30;99.90
20366;DHT22;10341;49.894;8.822;2023-07-08T04:52:55;14.60;99.90
20366;DHT22;10341;49.894;8.822;2023-07-08T04:58:14;14.80;99.90
20366;DHT22;10341;49.894;8.822;2023-07-08T05:03:34;15.10;99.90
20366;DHT22;10341;49.894;8.822;2023-07-08T05:08:53;15.60;99.90
20366;DHT22;10341;49.894;8.822;2023-07-08T05:14:13;15.90;99.90
20366;DHT22;10341;49.894;8.822;2023-07-08T05:19:33;16.50;99.90
20366;DHT22;10341;49.894;8.822;2023-07-08T05:24:53;17.00;99.90
20366;DHT22;10341;49.894;8.822;2023-07-08T05:30:17;17.40;99.90
20366;DHT22;10341;49.894;8.822;2023-07-08T05:35:36;17.80;99.90
20366;DHT22;10341;49.894;8.822;2023-07-08T05:40:58;18.00;99.90
20366;DHT22;10341;49.894;8.822;2023-07-08T05:46:17;18.30;99.90
20366;DHT22;10341;49.894;8.822;2023-07-08T05:51:37;18.70;99.90
20366;DHT22;10341;49.894;8.822;2023-07-08T05:56:57;19.30;99.90
20366;DHT22;10341;49.894;8.822;2023-07-08T06:02:17;19.90;99.90
20366;DHT22;10341;49.894;8.822;2023-07-08T06:07:36;20.60;99.90
20366;DHT22;10341;49.894;8.822;2023-07-08T06:12:55;21.00;99.90
20366;DHT22;10341;49.894;8.822;2023-07-08T06:18:15;21.40;99.90
20366;DHT22;10341;49.894;8.822;2023-07-08T06:23:34;21.70;99.90
20366;DHT22;10341;49.894;8.822;2023-07-08T06:28:53;22.00;99.90
20366;DHT22;10341;49.894;8.822;2023-07-08T06:34:12;22.10;99.90
20366;DHT22;10341;49.894;8.822;2023-07-08T06:39:32;22.20;99.90
20366;DHT22;10341;49.894;8.822;2023-07-08T06:44:52;22.20;99.90
20366;DHT22;10341;49.894;8.822;2023-07-08T06:50:11;22.20;99.90
20366;DHT22;10341;49.894;8.822;2023-07-08T06:55:30;22.20;99.90
20366;DHT22;10341;49.894;8.822;2023-07-08T07:00:49;22.30;99.90
20366;DHT22;10341;49.894;8.822;2023-07-08T07:06:09;22.50;99.90
20366;DHT22;10341;49.894;8.822;2023-07-08T07:11:28;22.80;99.90
20366;DHT22;10341;49.894;8.822;2023-07-08T07:16:48;23.20;99.90
20366;DHT22;10341;49.894;8.822;2023-07-08T07:22:07;23.50;99.90
20366;DHT22;10341;49.894;8.822;2023-07-08T07:27:26;24.00;99.90
20366;DHT22;10341;49.894;8.822;2023-07-08T07:32:45;24.30;99.90
20366;DHT22;10341;49.894;8.822;2023-07-08T07:38:05;24.50;99.90
20366;DHT22;10341;49.894;8.822;2023-07-08T07:43:24;24.50;99.90
20366;DHT22;10341;49.894;8.822;2023-07-08T07:48:44;24.80;99.90
20366;DHT22;10341;49.894;8.822;2023-07-08T07:54:03;25.00;99.90
20366;DHT22;10341;49.894;8.822;2023-07-08T07:59:23;25.40;99.80
20366;DHT22;10341;49.894;8.822;2023-07-08T08:04:42;25.80;99.60
20366;DHT22;10341;49.894;8.822;2023-07-08T08:10:02;26.20;98.60
20366;DHT22;10341;49.894;8.822;2023-07-08T08:15:22;26.20;97.90
20366;DHT22;10341;49.894;8.822;2023-07-08T08:20:41;26.20;97.70
20366;DHT22;10341;49.894;8.822;2023-07-08T08:26:00;26.20;97.90
20366;DHT22;10341;49.894;8.822;2023-07-08T08:31:19;26.40;98.70
20366;DHT22;10341;49.894;8.822;2023-07-08T08:36:39;26.80;97.90
20366;DHT22;10341;49.894;8.822;2023-07-08T08:41:59;30.50;94.20
20366;DHT22;10341;49.894;8.822;2023-07-08T08:47:34;33.70;85.50
20366;DHT22;10341;49.894;8.822;2023-07-08T08:52:54;34.50;72.00
20366;DHT22;10341;49.894;8.822;2023-07-08T09:04:20;32.30;75.20
20366;DHT22;10341;49.894;8.822;2023-07-08T09:09:48;34.70;67.80
20366;DHT22;10341;49.894;8.822;2023-07-08T09:15:13;37.20;65.90
20366;DHT22;10341;49.894;8.822;2023-07-08T09:20:33;38.90;55.90
20366;DHT22;10341;49.894;8.822;2023-07-08T09:31:28;39.40;54.30
20366;DHT22;10341;49.894;8.822;2023-07-08T09:36:50;39.50;54.60
20366;DHT22;10341;49.894;8.822;2023-07-08T09:42:10;40.50;51.10
20366;DHT22;10341;49.894;8.822;2023-07-08T09:47:35;39.10;52.40
20366;DHT22;10341;49.894;8.822;2023-07-08T09:52:57;40.30;53.00
20366;DHT22;10341;49.894;8.822;2023-07-08T09:58:34;40.20;51.50
20366;DHT22;10341;49.894;8.822;2023-07-08T10:04:01;39.90;53.30
20366;DHT22;10341;49.894;8.822;2023-07-08T10:09:24;39.70;51.80
20366;DHT22;10341;49.894;8.822;2023-07-08T10:14:54;39.30;52.10
20366;DHT22;10341;49.894;8.822;2023-07-08T10:20:15;38.70;53.30
20366;DHT22;10341;49.894;8.822;2023-07-08T10:31:25;40.40;51.60
20366;DHT22;10341;49.894;8.822;2023-07-08T10:37:22;39.90;53.50
20366;DHT22;10341;49.894;8.822;2023-07-08T11:00:11;39.00;51.80
20366;DHT22;10341;49.894;8.822;2023-07-08T11:05:46;40.00;52.20
20366;DHT22;10341;49.894;8.822;2023-07-08T11:11:07;41.50;50.80
20366;DHT22;10341;49.894;8.822;2023-07-08T11:16:36;42.20;51.00
20366;DHT22;10341;49.894;8.822;2023-07-08T11:21:59;41.60;48.20
20366;DHT22;10341;49.894;8.822;2023-07-08T11:27:29;40.90;50.10
20366;DHT22;10341;49.894;8.822;2023-07-08T11:33:02;41.50;48.90
20366;DHT22;10341;49.894;8.822;2023-07-08T11:38:22;41.20;48.20
20366;DHT22;10341;49.894;8.822;2023-07-08T11:43:52;41.00;48.40
20366;DHT22;10341;49.894;8.822;2023-07-08T11:49:13;40.00;47.90
20366;DHT22;10341;49.894;8.822;2023-07-08T11:54:35;41.60;48.80
20366;DHT22;10341;49.894;8.822;2023-07-08T12:00:15;40.20;48.20
20366;DHT22;10341;49.894;8.822;2023-07-08T12:05:36;38.80;49.70
20366;DHT22;10341;49.894;8.822;2023-07-08T12:10:57;37.80;51.10
20366;DHT22;10341;49.894;8.822;2023-07-08T12:16:17;37.10;52.20
20366;DHT22;10341;49.894;8.822;2023-07-08T12:21:37;36.90;52.30
20366;DHT22;10341;49.894;8.822;2023-07-08T12:26:56;37.30;53.40
20366;DHT22;10341;49.894;8.822;2023-07-08T12:32:15;36.70;53.10
20366;DHT22;10341;49.894;8.822;2023-07-08T12:37:35;37.00;53.40
20366;DHT22;10341;49.894;8.822;2023-07-08T12:42:56;37.10;54.60
20366;DHT22;10341;49.894;8.822;2023-07-08T12:48:15;37.80;54.20
20366;DHT22;10341;49.894;8.822;2023-07-08T12:53:35;38.10;54.80
20366;DHT22;10341;49.894;8.822;2023-07-08T12:58:56;37.30;54.80
20366;DHT22;10341;49.894;8.822;2023-07-08T13:04:17;37.50;54.70
20366;DHT22;10341;49.894;8.822;2023-07-08T13:09:43;37.70;55.10
20366;DHT22;10341;49.894;8.822;2023-07-08T13:15:04;37.00;54.00
20366;DHT22;10341;49.894;8.822;2023-07-08T13:20:28;36.00;56.00
20366;DHT22;10341;49.894;8.822;2023-07-08T13:25:50;35.60;55.00
20366;DHT22;10341;49.894;8.822;2023-07-08T13:31:21;36.10;56.40
20366;DHT22;10341;49.894;8.822;2023-07-08T13:36:43;35.80;55.80
20366;DHT22;10341;49.894;8.822;2023-07-08T13:42:06;35.90;55.20
20366;DHT22;10341;49.894;8.822;2023-07-08T13:47:29;36.60;55.90
20366;DHT22;10341;49.894;8.822;2023-07-08T13:52:54;36.90;54.40
20366;DHT22;10341;49.894;8.822;2023-07-08T13:58:17;36.90;55.30
20366;DHT22;10341;49.894;8.822;2023-07-08T14:03:37;36.70;55.10
20366;DHT22;10341;49.894;8.822;2023-07-08T14:14:30;36.90;53.70
20366;DHT22;10341;49.894;8.822;2023-07-08T14:19:49;37.30;54.40
20366;DHT22;10341;49.894;8.822;2023-07-08T14:25:10;37.00;54.00
20366;DHT22;10341;49.894;8.822;2023-07-08T14:30:30;36.90;53.90
20366;DHT22;10341;49.894;8.822;2023-07-08T14:35:48;36.20;53.50
20366;DHT22;10341;49.894;8.822;2023-07-08T14:41:08;36.10;53.70
20366;DHT22;10341;49.894;8.822;2023-07-08T14:46:27;36.00;53.70
20366;DHT22;10341;49.894;8.822;2023-07-08T14:51:46;36.10;54.70
20366;DHT22;10341;49.894;8.822;2023-07-08T14:57:06;36.10;54.40
20366;DHT22;10341;49.894;8.822;2023-07-08T15:02:26;36.30;55.80
20366;DHT22;10341;49.894;8.822;2023-07-08T15:07:54;36.00;54.50
20366;DHT22;10341;49.894;8.822;2023-07-08T15:13:15;35.80;55.30
20366;DHT22;10341;49.894;8.822;2023-07-08T15:18:36;35.80;55.20
20366;DHT22;10341;49.894;8.822;2023-07-08T15:23:56;35.80;54.00
20366;DHT22;10341;49.894;8.822;2023-07-08T15:29:21;35.50;54.60
20366;DHT22;10341;49.894;8.822;2023-07-08T15:34:41;34.80;57.00
20366;DHT22;10341;49.894;8.822;2023-07-08T15:40:00;35.10;56.50
20366;DHT22;10341;49.894;8.822;2023-07-08T15:45:25;34.70;58.40
20366;DHT22;10341;49.894;8.822;2023-07-08T15:50:45;35.10;58.20
20366;DHT22;10341;49.894;8.822;2023-07-08T15:56:04;34.80;57.30
20366;DHT22;10341;49.894;8.822;2023-07-08T16:01:24;34.50;60.00
20366;DHT22;10341;49.894;8.822;2023-07-08T16:06:44;35.00;57.80
20366;DHT22;10341;49.894;8.822;2023-07-08T16:12:04;34.60;58.40
20366;DHT22;10341;49.894;8.822;2023-07-08T16:17:24;34.40;58.20
20366;DHT22;10341;49.894;8.822;2023-07-08T16:22:44;34.50;58.70
20366;DHT22;10341;49.894;8.822;2023-07-08T16:28:05;34.10;59.40
20366;DHT22;10341;49.894;8.822;2023-07-08T16:33:24;33.60;59.90
20366;DHT22;10341;49.894;8.822;2023-07-08T16:38:44;33.10;59.70
20366;DHT22;10341;49.894;8.822;2023-07-08T16:44:15;32.80;59.80
20366;DHT22;10341;49.894;8.822;2023-07-08T16:49:34;32.50;61.50
20366;DHT22;10341;49.894;8.822;2023-07-08T16:54:54;32.20;61.30
20366;DHT22;10341;49.894;8.822;2023-07-08T17:00:16;31.80;63.80
20366;DHT22;10341;49.894;8.822;2023-07-08T17:05:36;31.50;65.00
20366;DHT22;10341;49.894;8.822;2023-07-08T17:10:56;31.00;71.50
20366;DHT22;10341;49.894;8.822;2023-07-08T17:16:17;30.60;75.40
20366;DHT22;10341;49.894;8.822;2023-07-08T17:21:37;30.20;79.10
20366;DHT22;10341;49.894;8.822;2023-07-08T17:26:57;29.90;80.80
20366;DHT22;10341;49.894;8.822;2023-07-08T17:32:16;29.60;75.40
20366;DHT22;10341;49.894;8.822;2023-07-08T17:37:36;29.50;73.60
20366;DHT22;10341;49.894;8.822;2023-07-08T17:42:56;29.40;76.00
20366;DHT22;10341;49.894;8.822;2023-07-08T17:48:23;29.20;77.90
20366;DHT22;10341;49.894;8.822;2023-07-08T17:53:43;28.90;83.20
20366;DHT22;10341;49.894;8.822;2023-07-08T17:59:03;28.70;86.70
20366;DHT22;10341;49.894;8.822;2023-07-08T18:04:23;28.60;81.10
20366;DHT22;10341;49.894;8.822;2023-07-08T18:09:44;28.60;76.90
20366;DHT22;10341;49.894;8.822;2023-07-08T18:20:50;28.60;71.50
20366;DHT22;10341;49.894;8.822;2023-07-08T18:26:18;28.70;72.70
20366;DHT22;10341;49.894;8.822;2023-07-08T18:31:37;28.70;70.10
20366;DHT22;10341;49.894;8.822;2023-07-08T18:36:57;28.70;68.30
20366;DHT22;10341;49.894;8.822;2023-07-08T18:42:16;28.80;66.50
20366;DHT22;10341;49.894;8.822;2023-07-08T18:47:36;28.70;67.50
20366;DHT22;10341;49.894;8.822;2023-07-08T18:52:55;28.50;67.50
20366;DHT22;10341;49.894;8.822;2023-07-08T18:58:17;28.30;69.00
20366;DHT22;10341;49.894;8.822;2023-07-08T19:03:38;28.10;71.10
20366;DHT22;10341;49.894;8.822;2023-07-08T19:08:58;27.90;69.90
20366;DHT22;10341;49.894;8.822;2023-07-08T19:14:18;27.70;70.80
20366;DHT22;10341;49.894;8.822;2023-07-08T19:19:37;27.50;73.80
20366;DHT22;10341;49.894;8.822;2023-07-08T19:24:56;27.10;75.00
20366;DHT22;10341;49.894;8.822;2023-07-08T19:30:16;26.80;77.60
20366;DHT22;10341;49.894;8.822;2023-07-08T19:35:42;26.60;80.50
20366;DHT22;10341;49.894;8.822;2023-07-08T19:41:01;26.30;84.00
20366;DHT22;10341;49.894;8.822;2023-07-08T19:46:21;26.00;86.90
20366;DHT22;10341;49.894;8.822;2023-07-08T19:51:40;25.80;88.10
20366;DHT22;10341;49.894;8.822;2023-07-08T19:57:07;25.60;89.50
20366;DHT22;10341;49.894;8.822;2023-07-08T20:02:28;25.10;91.30
20366;DHT22;10341;49.894;8.822;2023-07-08T20:07:47;24.90;92.60
20366;DHT22;10341;49.894;8.822;2023-07-08T20:13:10;24.80;94.80
20366;DHT22;10341;49.894;8.822;2023-07-08T20:18:32;24.70;95.70
20366;DHT22;10341;49.894;8.822;2023-07-08T20:23:52;24.50;96.80
20366;DHT22;10341;49.894;8.822;2023-07-08T20:29:15;24.30;98.90
20366;DHT22;10341;49.894;8.822;2023-07-08T20:34:35;24.30;99.90
20366;DHT22;10341;49.894;8.822;2023-07-08T20:39:55;24.20;99.90
20366;DHT22;10341;49.894;8.822;2023-07-08T20:45:15;24.10;99.90
20366;DHT22;10341;49.894;8.822;2023-07-08T20:50:35;24.00;99.90
20366;DHT22;10341;49.894;8.822;2023-07-08T20:55:54;23.90;99.90
20366;DHT22;10341;49.894;8.822;2023-07-08T21:01:14;23.70;99.90
20366;DHT22;10341;49.894;8.822;2023-07-08T21:06:34;23.70;99.90
20366;DHT22;10341;49.894;8.822;2023-07-08T21:11:53;23.70;99.90
20366;DHT22;10341;49.894;8.822;2023-07-08T21:17:17;23.70;99.90
20366;DHT22;10341;49.894;8.822;2023-07-08T21:22:37;23.70;99.90
20366;DHT22;10341;49.894;8.822;2023-07-08T21:27:57;23.60;99.90
20366;DHT22;10341;49.894;8.822;2023-07-08T21:33:16;23.60;99.90
20366;DHT22;10341;49.894;8.822;2023-07-08T21:38:35;23.50;99.90
20366;DHT22;10341;49.894;8.822;2023-07-08T21:43:55;23.40;99.90
20366;DHT22;10341;49.894;8.822;2023-07-08T21:49:16;23.30;99.90
20366;DHT22;10341;49.894;8.822;2023-07-08T21:54:35;23.10;99.90
20366;DHT22;10341;49.894;8.822;2023-07-08T21:59:55;22.80;99.90
20366;DHT22;10341;49.894;8.822;2023-07-08T22:05:18;22.70;99.90
20366;DHT22;10341;49.894;8.822;2023-07-08T22:10:38;22.40;99.90
20366;DHT22;10341;49.894;8.822;2023-07-08T22:16:00;22.10;99.90
20366;DHT22;10341;49.894;8.822;2023-07-08T22:21:25;22.00;99.90
20366;DHT22;10341;49.894;8.822;2023-07-08T22:26:48;21.80;99.90
20366;DHT22;10341;49.894;8.822;2023-07-08T22:32:08;21.60;99.90
20366;DHT22;10341;49.894;8.822;2023-07-08T22:37:28;21.40;99.90
20366;DHT22;10341;49.894;8.822;2023-07-08T22:42:47;21.20;99.90
20366;DHT22;10341;49.894;8.822;2023-07-08T22:48:09;21.00;99.90
20366;DHT22;10341;49.894;8.822;2023-07-08T22:53:35;20.80;99.90
20366;DHT22;10341;49.894;8.822;2023-07-08T22:58:54;20.60;99.90
20366;DHT22;10341;49.894;8.822;2023-07-08T23:04:13;20.40;99.90
20366;DHT22;10341;49.894;8.822;2023-07-08T23:09:33;20.30;99.90
20366;DHT22;10341;49.894;8.822;2023-07-08T23:14:52;20.20;99.90
20366;DHT22;10341;49.894;8.822;2023-07-08T23:20:17;20.10;99.90
20366;DHT22;10341;49.894;8.822;2023-07-08T23:25:36;20.00;99.90
20366;DHT22;10341;49.894;8.822;2023-07-08T23:30:56;19.80;99.90
20366;DHT22;10341;49.894;8.822;2023-07-08T23:36:37;19.70;99.90
20366;DHT22;10341;49.894;8.822;2023-07-08T23:41:57;19.60;99.90
20366;DHT22;10341;49.894;8.822;2023-07-08T23:47:23;19.50;99.90
20366;DHT22;10341;49.894;8.822;2023-07-08T23:52:44;19.30;99.90
20366;DHT22;10341;49.894;8.822;2023-07-08T23:58:03;19.20;99.90
